createdAt,value
2018-12-26T00:01:34.427Z,98.58
2018-12-26T00:04:03.591Z,98.39
2018-12-26T00:06:32.683Z,98.47
2018-12-26T00:09:01.807Z,98.61
2018-12-26T00:11:30.904Z,98.73
2018-12-26T00:14:00.009Z,98.80
2018-12-26T00:16:29.121Z,98.85
2018-12-26T00:18:58.220Z,98.54
2018-12-26T00:21:27.340Z,98.36
2018-12-26T00:23:56.483Z,98.55
2018-12-26T00:26:25.647Z,98.61
2018-12-26T00:28:54.760Z,98.44
2018-12-26T00:31:23.893Z,98.19
2018-12-26T00:33:52.988Z,98.29
2018-12-26T00:36:22.101Z,98.31
2018-12-26T00:38:51.197Z,98.12
2018-12-26T00:41:20.318Z,98.17
2018-12-26T00:43:49.441Z,98.25
2018-12-26T00:46:18.568Z,97.91
2018-12-26T00:48:47.673Z,97.43
2018-12-26T00:51:16.791Z,97.34
2018-12-26T00:53:45.893Z,97.50
2018-12-26T00:56:15.028Z,97.44
2018-12-26T00:58:44.121Z,97.42
2018-12-26T01:01:13.234Z,97.44
2018-12-26T01:03:42.345Z,98.19
2018-12-26T01:06:11.450Z,98.80
2018-12-26T01:08:40.537Z,98.86
2018-12-26T01:11:09.659Z,99.31
2018-12-26T01:13:38.753Z,99.35
2018-12-26T01:16:07.877Z,98.97
2018-12-26T01:18:36.980Z,98.62
2018-12-26T01:21:06.099Z,98.62
2018-12-26T01:23:35.244Z,98.45
2018-12-26T01:26:04.360Z,98.46
2018-12-26T01:28:33.460Z,98.69
2018-12-26T01:31:02.598Z,98.70
2018-12-26T01:33:31.703Z,98.49
2018-12-26T01:36:00.827Z,98.19
2018-12-26T01:38:29.916Z,98.08
2018-12-26T01:40:59.033Z,97.97
2018-12-26T01:43:28.153Z,98.13
2018-12-26T01:45:57.270Z,98.17
2018-12-26T01:48:26.369Z,98.18
2018-12-26T01:50:55.493Z,98.22
2018-12-26T01:53:24.591Z,98.17
2018-12-26T01:55:53.692Z,97.93
2018-12-26T01:58:22.817Z,97.78
2018-12-26T02:00:51.912Z,97.83
2018-12-26T02:03:21.121Z,97.84
2018-12-26T02:05:50.227Z,97.87
2018-12-26T02:08:19.347Z,98.03
2018-12-26T02:10:48.452Z,98.31
2018-12-26T02:13:17.587Z,98.62
2018-12-26T02:15:46.683Z,98.93
2018-12-26T02:18:15.791Z,98.86
2018-12-26T02:20:44.895Z,98.95
2018-12-26T02:23:14.015Z,98.81
2018-12-26T02:25:43.118Z,98.35
2018-12-26T02:28:12.230Z,98.32
2018-12-26T02:30:41.355Z,98.60
2018-12-26T02:33:10.474Z,98.55
2018-12-26T02:35:39.572Z,98.60
2018-12-26T02:38:08.706Z,98.63
2018-12-26T02:40:37.804Z,98.67
2018-12-26T02:43:06.926Z,98.69
2018-12-26T02:45:36.023Z,98.85
2018-12-26T02:48:05.142Z,98.97
2018-12-26T02:50:34.229Z,99.05
2018-12-26T02:53:03.554Z,99.18
2018-12-26T02:55:32.649Z,99.22
2018-12-26T02:58:01.775Z,99.18
2018-12-26T03:00:30.861Z,99.40
2018-12-26T03:03:00.001Z,99.31
2018-12-26T03:05:29.102Z,99.12
2018-12-26T03:07:58.217Z,99.03
2018-12-26T03:10:27.333Z,99.31
2018-12-26T03:12:56.464Z,99.27
2018-12-26T03:15:25.553Z,99.10
2018-12-26T03:17:54.695Z,98.86
2018-12-26T03:20:23.794Z,98.98
2018-12-26T03:22:52.893Z,99.21
2018-12-26T03:25:22.001Z,99.46
2018-12-26T03:27:51.094Z,99.32
2018-12-26T03:30:20.219Z,99.17
2018-12-26T03:32:49.348Z,99.40
2018-12-26T03:35:18.464Z,99.22
2018-12-26T03:37:47.551Z,99.04
2018-12-26T03:40:16.668Z,98.75
2018-12-26T03:42:45.761Z,98.78
2018-12-26T03:45:14.888Z,99.04
2018-12-26T03:47:44.988Z,98.86
2018-12-26T03:50:14.116Z,98.81
2018-12-26T03:52:43.239Z,98.44
2018-12-26T03:55:12.344Z,98.29
2018-12-26T03:57:41.444Z,98.14
2018-12-26T04:00:10.595Z,98.45
2018-12-26T04:02:39.706Z,98.89
2018-12-26T04:05:08.830Z,98.87
2018-12-26T04:07:38.050Z,98.83
2018-12-26T04:10:07.136Z,98.78
2018-12-26T04:12:36.336Z,98.96
2018-12-26T04:15:05.449Z,99.08
2018-12-26T04:17:34.651Z,99.13
2018-12-26T04:20:03.766Z,98.99
2018-12-26T04:22:32.863Z,99.02
2018-12-26T04:25:01.975Z,98.90
2018-12-26T04:27:31.067Z,98.73
2018-12-26T04:30:00.262Z,98.77
2018-12-26T04:32:29.325Z,98.81
2018-12-26T04:34:58.451Z,98.77
2018-12-26T04:37:27.550Z,98.97
2018-12-26T04:39:56.677Z,98.78
2018-12-26T04:42:25.779Z,98.68
2018-12-26T04:44:55.146Z,98.83
2018-12-26T04:47:24.239Z,99.04
2018-12-26T04:49:53.358Z,98.98
2018-12-26T04:52:22.470Z,98.92
2018-12-26T04:54:51.600Z,98.72
2018-12-26T04:57:24.996Z,98.64
2018-12-26T04:59:51.550Z,98.75
2018-12-26T05:02:20.642Z,98.79
2018-12-26T05:04:49.761Z,98.97
2018-12-26T05:07:18.861Z,99.01
2018-12-26T05:09:47.968Z,98.81
2018-12-26T05:12:17.078Z,98.50
2018-12-26T05:14:46.181Z,98.37
2018-12-26T05:17:15.302Z,98.28
2018-12-26T05:19:44.392Z,97.98
2018-12-26T05:22:13.520Z,98.19
2018-12-26T05:24:42.819Z,98.39
2018-12-26T05:27:11.941Z,98.49
2018-12-26T05:29:41.039Z,98.66
2018-12-26T05:32:10.282Z,98.73
2018-12-26T05:34:39.392Z,98.66
2018-12-26T05:37:08.518Z,98.59
2018-12-26T05:39:37.633Z,98.74
2018-12-26T05:42:06.767Z,98.79
2018-12-26T05:44:35.893Z,98.81
2018-12-26T05:47:05.049Z,98.72
2018-12-26T05:49:34.133Z,98.72
2018-12-26T05:52:03.255Z,98.57
2018-12-26T05:54:32.369Z,98.43
2018-12-26T05:57:01.499Z,98.44
2018-12-26T05:59:30.604Z,98.90
2018-12-26T06:01:59.742Z,99.00
2018-12-26T06:04:28.851Z,99.01
2018-12-26T06:06:57.980Z,98.99
2018-12-26T06:09:27.078Z,98.91
2018-12-26T06:11:56.205Z,98.72
2018-12-26T06:14:25.319Z,98.57
2018-12-26T06:16:54.411Z,98.55
2018-12-26T06:19:23.498Z,98.78
2018-12-26T06:21:52.620Z,98.78
2018-12-26T06:24:21.718Z,99.22
2018-12-26T06:26:50.820Z,99.29
2018-12-26T06:29:19.936Z,99.31
2018-12-26T06:31:49.089Z,99.42
2018-12-26T06:34:18.218Z,99.45
2018-12-26T06:36:47.314Z,99.50
2018-12-26T06:39:16.445Z,99.61
2018-12-26T06:41:45.541Z,99.63
2018-12-26T06:44:14.654Z,99.53
2018-12-26T06:46:43.762Z,99.37
2018-12-26T06:49:12.875Z,99.27
2018-12-26T06:51:41.982Z,99.51
2018-12-26T06:54:11.104Z,99.02
2018-12-26T06:56:40.200Z,98.79
2018-12-26T06:59:09.336Z,98.84
2018-12-26T07:01:38.439Z,99.12
2018-12-26T07:04:07.558Z,99.70
2018-12-26T07:06:36.666Z,99.83
2018-12-26T07:09:06.911Z,99.68
2018-12-26T07:11:36.023Z,99.42
2018-12-26T07:14:05.328Z,99.33
2018-12-26T07:16:34.440Z,99.17
2018-12-26T07:19:03.565Z,99.26
2018-12-26T07:21:32.660Z,99.12
2018-12-26T07:24:01.787Z,99.36
2018-12-26T07:26:30.891Z,99.33
2018-12-26T07:29:01.040Z,99.06
2018-12-26T07:31:30.208Z,99.21
2018-12-26T07:33:59.325Z,99.03
2018-12-26T07:36:28.435Z,98.80
2018-12-26T07:38:57.551Z,98.78
2018-12-26T07:41:26.651Z,98.55
2018-12-26T07:43:55.770Z,98.41
2018-12-26T07:46:24.857Z,98.47
2018-12-26T07:48:53.963Z,98.00
2018-12-26T07:51:23.088Z,97.63
2018-12-26T07:53:52.199Z,97.54
2018-12-26T07:56:21.324Z,97.58
2018-12-26T07:58:50.429Z,97.68
2018-12-26T08:01:19.557Z,97.99
2018-12-26T08:03:48.652Z,97.58
2018-12-26T08:06:17.806Z,97.63
2018-12-26T08:08:46.981Z,97.57
2018-12-26T08:11:16.107Z,97.33
2018-12-26T08:13:45.205Z,96.96
2018-12-26T08:16:14.326Z,96.61
2018-12-26T08:18:43.447Z,96.55
2018-12-26T08:21:12.579Z,97.21
2018-12-26T08:23:41.678Z,97.28
2018-12-26T08:26:10.791Z,97.35
2018-12-26T08:28:39.901Z,97.50
2018-12-26T08:31:09.035Z,93.66
2018-12-26T08:33:38.190Z,91.54
2018-12-26T08:36:07.319Z,91.46
2018-12-26T08:38:36.421Z,90.59
2018-12-26T08:41:05.534Z,89.58
2018-12-26T08:43:34.633Z,87.15
2018-12-26T08:46:03.755Z,84.33
2018-12-26T08:48:32.850Z,81.21
2018-12-26T08:51:01.966Z,79.85
2018-12-26T08:53:31.066Z,77.56
2018-12-26T08:56:00.173Z,74.05
2018-12-26T08:58:35.180Z,71.04
2018-12-26T09:01:00.107Z,71.07
2018-12-26T09:03:29.209Z,71.57
2018-12-26T09:05:58.323Z,72.35
2018-12-26T09:08:27.425Z,69.99
2018-12-26T09:10:56.535Z,65.67
2018-12-26T09:13:25.651Z,62.51
2018-12-26T09:15:54.755Z,57.32
2018-12-26T09:18:23.875Z,51.70
2018-12-26T09:20:52.977Z,47.25
2018-12-26T09:23:22.085Z,47.85
2018-12-26T09:25:56.636Z,45.65
2018-12-26T09:28:25.779Z,43.92
2018-12-26T09:30:54.884Z,43.47
2018-12-26T09:33:24.040Z,40.07
2018-12-26T09:35:53.148Z,39.37
2018-12-26T09:38:22.278Z,38.75
2018-12-26T09:40:51.392Z,37.32
2018-12-26T09:43:20.511Z,38.95
2018-12-26T09:45:49.622Z,37.53
2018-12-26T09:48:18.745Z,39.85
2018-12-26T09:50:47.860Z,41.83
2018-12-26T09:53:16.991Z,40.66
2018-12-26T09:55:46.093Z,37.20
2018-12-26T09:58:15.936Z,35.14
2018-12-26T10:00:45.045Z,37.30
2018-12-26T10:03:14.182Z,38.33
2018-12-26T10:05:43.291Z,39.29
2018-12-26T10:08:12.414Z,41.55
2018-12-26T10:10:41.511Z,41.33
2018-12-26T10:13:10.602Z,44.02
2018-12-26T10:15:39.734Z,46.91
2018-12-26T10:18:08.852Z,49.33
2018-12-26T10:20:37.958Z,48.10
2018-12-26T10:23:07.059Z,49.26
2018-12-26T10:25:36.184Z,48.22
2018-12-26T10:28:05.288Z,47.26
2018-12-26T10:30:34.418Z,45.92
2018-12-26T10:33:03.544Z,42.51
2018-12-26T10:35:32.672Z,42.42
2018-12-26T10:38:01.785Z,39.89
2018-12-26T10:40:30.929Z,39.57
2018-12-26T10:43:00.041Z,39.18
2018-12-26T10:45:29.171Z,45.56
2018-12-26T10:47:58.274Z,44.11
2018-12-26T10:50:27.395Z,45.47
2018-12-26T10:52:56.509Z,43.02
2018-12-26T10:55:25.625Z,45.23
2018-12-26T10:57:54.823Z,45.36
2018-12-26T11:00:23.961Z,38.25
2018-12-26T11:02:53.072Z,35.75
2018-12-26T11:05:29.519Z,32.72
2018-12-26T11:07:53.047Z,28.18
2018-12-26T11:10:22.162Z,25.39
2018-12-26T11:12:51.337Z,22.72
2018-12-26T11:15:20.458Z,21.76
2018-12-26T11:17:49.564Z,20.37
2018-12-26T11:20:18.695Z,19.21
2018-12-26T11:22:47.794Z,18.49
2018-12-26T11:25:16.911Z,20.44
2018-12-26T11:27:46.010Z,19.39
2018-12-26T11:30:15.140Z,19.49
2018-12-26T11:32:44.256Z,21.44
2018-12-26T11:35:13.383Z,21.97
2018-12-26T11:37:42.478Z,19.66
2018-12-26T11:40:11.811Z,20.41
2018-12-26T11:42:41.078Z,21.68
2018-12-26T11:45:10.150Z,21.85
2018-12-26T11:47:39.253Z,21.68
2018-12-26T11:50:08.671Z,21.86
2018-12-26T11:52:37.792Z,22.90
2018-12-26T11:55:07.017Z,23.15
2018-12-26T11:57:36.975Z,23.64
2018-12-26T12:00:07.249Z,21.87
2018-12-26T12:02:36.389Z,21.48
2018-12-26T12:05:05.845Z,21.55
2018-12-26T12:07:34.987Z,22.37
2018-12-26T12:10:04.220Z,22.95
2018-12-26T12:12:33.345Z,24.10
2018-12-26T12:15:02.448Z,23.31
2018-12-26T12:17:31.574Z,21.69
2018-12-26T12:20:00.666Z,23.44
2018-12-26T12:22:29.786Z,24.97
2018-12-26T12:24:58.878Z,24.39
2018-12-26T12:27:27.996Z,25.77
2018-12-26T12:29:57.089Z,27.64
2018-12-26T12:32:26.236Z,24.25
2018-12-26T12:34:55.382Z,24.42
2018-12-26T12:37:24.513Z,22.28
2018-12-26T12:39:53.607Z,21.47
2018-12-26T12:42:23.842Z,21.85
2018-12-26T12:44:52.945Z,25.00
2018-12-26T12:47:22.089Z,25.30
2018-12-26T12:49:51.291Z,26.70
2018-12-26T12:52:20.419Z,23.22
2018-12-26T12:54:49.523Z,24.22
2018-12-26T12:57:18.642Z,23.43
2018-12-26T12:59:47.750Z,23.20
2018-12-26T13:02:17.753Z,22.43
2018-12-26T13:04:46.862Z,22.33
2018-12-26T13:07:15.990Z,23.20
2018-12-26T13:09:45.085Z,24.22
2018-12-26T13:12:14.192Z,25.42
2018-12-26T13:14:43.290Z,26.84
2018-12-26T13:17:12.383Z,26.59
2018-12-26T13:19:41.519Z,26.47
2018-12-26T13:22:10.628Z,27.40
2018-12-26T13:24:39.751Z,28.13
2018-12-26T13:27:09.078Z,29.05
2018-12-26T13:29:38.192Z,26.86
2018-12-26T13:32:07.354Z,28.09
2018-12-26T13:34:36.499Z,27.73
2018-12-26T13:37:05.599Z,25.53
2018-12-26T13:39:34.724Z,25.87
2018-12-26T13:42:03.857Z,25.18
2018-12-26T13:44:34.512Z,25.00
2018-12-26T13:47:03.632Z,24.99
2018-12-26T13:49:32.750Z,27.41
2018-12-26T13:52:01.847Z,29.09
2018-12-26T13:54:30.967Z,29.35
2018-12-26T13:57:00.080Z,29.32
2018-12-26T13:59:29.213Z,31.26
2018-12-26T14:01:58.319Z,32.10
2018-12-26T14:04:27.439Z,32.45
2018-12-26T14:06:56.543Z,33.46
2018-12-26T14:09:25.807Z,33.72
2018-12-26T14:11:54.901Z,32.50
2018-12-26T14:14:24.024Z,32.55
2018-12-26T14:16:53.119Z,35.07
2018-12-26T14:19:22.239Z,33.03
2018-12-26T14:21:51.338Z,31.16
2018-12-26T14:24:20.463Z,32.10
2018-12-26T14:26:49.562Z,31.68
2018-12-26T14:29:18.687Z,30.95
2018-12-26T14:31:47.804Z,30.37
2018-12-26T14:34:16.921Z,31.38
2018-12-26T14:36:46.051Z,32.62
2018-12-26T14:39:15.145Z,36.50
2018-12-26T14:41:44.271Z,39.34
2018-12-26T14:44:13.364Z,41.21
2018-12-26T14:46:42.489Z,42.40
2018-12-26T14:49:11.587Z,43.27
2018-12-26T14:51:40.705Z,43.18
2018-12-26T14:54:09.822Z,46.57
2018-12-26T14:56:38.945Z,50.06
2018-12-26T14:59:08.052Z,49.64
2018-12-26T15:01:37.175Z,51.95
2018-12-26T15:04:06.282Z,57.48
2018-12-26T15:06:35.422Z,60.15
2018-12-26T15:09:06.521Z,64.75
2018-12-26T15:11:35.580Z,69.21
2018-12-26T15:14:04.691Z,71.61
2018-12-26T15:16:33.809Z,72.19
2018-12-26T15:19:19.431Z,73.98
2018-12-26T15:21:48.557Z,75.51
2018-12-26T15:24:17.654Z,76.32
2018-12-26T15:26:46.771Z,76.78
2018-12-26T15:29:15.872Z,77.19
2018-12-26T15:31:45.008Z,77.96
2018-12-26T15:34:14.134Z,77.89
2018-12-26T15:36:43.349Z,80.17
2018-12-26T15:39:12.538Z,80.39
2018-12-26T15:41:41.671Z,81.21
2018-12-26T15:44:10.761Z,82.77
2018-12-26T15:46:39.869Z,83.44
2018-12-26T15:49:08.969Z,83.88
2018-12-26T15:51:38.087Z,83.59
2018-12-26T15:54:07.181Z,82.53
2018-12-26T15:56:36.376Z,83.37
2018-12-26T15:59:05.466Z,83.44
2018-12-26T16:01:34.587Z,84.71
2018-12-26T16:04:03.690Z,85.50
2018-12-26T16:06:32.817Z,85.93
2018-12-26T16:09:02.435Z,85.99
2018-12-26T16:11:31.534Z,86.26
2018-12-26T16:14:00.650Z,86.08
2018-12-26T16:16:29.758Z,85.92
2018-12-26T16:18:58.883Z,85.53
2018-12-26T16:21:27.990Z,85.22
2018-12-26T16:23:57.115Z,86.28
2018-12-26T16:26:26.209Z,87.51
2018-12-26T16:28:55.371Z,87.21
2018-12-26T16:31:24.550Z,86.07
2018-12-26T16:33:53.689Z,87.20
2018-12-26T16:36:22.787Z,87.38
2018-12-26T16:38:51.900Z,87.50
2018-12-26T16:41:20.997Z,87.40
2018-12-26T16:43:50.119Z,87.93
2018-12-26T16:46:19.205Z,87.64
2018-12-26T16:48:48.319Z,88.26
2018-12-26T16:51:17.429Z,88.89
2018-12-26T16:53:46.564Z,88.71
2018-12-26T16:56:15.655Z,88.53
2018-12-26T16:58:44.765Z,88.18
2018-12-26T17:01:13.865Z,88.59
2018-12-26T17:03:42.973Z,88.34
2018-12-26T17:06:12.074Z,88.41
2018-12-26T17:08:41.192Z,88.02
2018-12-26T17:11:10.296Z,87.36
2018-12-26T17:13:39.429Z,87.21
2018-12-26T17:16:08.536Z,87.63
2018-12-26T17:18:37.656Z,88.18
2018-12-26T17:21:06.767Z,87.63
2018-12-26T17:23:35.904Z,88.49
2018-12-26T17:26:05.006Z,88.21
2018-12-26T17:28:34.129Z,88.88
2018-12-26T17:31:05.258Z,89.50
2018-12-26T17:33:34.406Z,89.68
2018-12-26T17:36:03.503Z,89.71
2018-12-26T17:38:32.641Z,89.31
2018-12-26T17:41:01.747Z,87.84
2018-12-26T17:43:30.852Z,87.26
2018-12-26T17:45:59.974Z,88.30
2018-12-26T17:48:29.097Z,88.29
2018-12-26T17:50:59.091Z,88.62
2018-12-26T17:54:14.290Z,88.68
2018-12-26T17:56:51.178Z,88.53
2018-12-26T17:59:25.383Z,88.08
2018-12-26T18:02:08.759Z,88.01
2018-12-26T18:04:37.893Z,87.89
2018-12-26T18:07:06.994Z,88.76
2018-12-26T18:09:36.124Z,88.67
2018-12-26T18:12:11.711Z,88.82
2018-12-26T18:14:36.065Z,88.43
2018-12-26T18:17:05.168Z,89.08
2018-12-26T18:19:34.291Z,88.85
2018-12-26T18:22:03.396Z,88.48
2018-12-26T18:24:32.508Z,88.39
2018-12-26T18:27:01.641Z,89.28
2018-12-26T18:29:30.759Z,89.68
2018-12-26T18:31:59.883Z,89.30
2018-12-26T18:34:29.005Z,89.54
2018-12-26T18:36:58.122Z,90.14
2018-12-26T18:39:27.225Z,90.48
2018-12-26T18:41:56.343Z,89.75
2018-12-26T18:44:25.379Z,89.97
2018-12-26T18:46:54.501Z,90.44
2018-12-26T18:49:23.594Z,89.74
2018-12-26T18:51:52.724Z,89.24
2018-12-26T18:54:21.824Z,89.09
2018-12-26T18:56:50.958Z,89.42
2018-12-26T18:59:20.066Z,89.34
2018-12-26T19:01:50.435Z,88.84
2018-12-26T19:04:19.685Z,88.88
2018-12-26T19:06:48.799Z,88.93
2018-12-26T19:09:17.894Z,88.93
2018-12-26T19:11:47.013Z,89.29
2018-12-26T19:14:16.191Z,89.67
2018-12-26T19:16:45.320Z,89.33
2018-12-26T19:19:14.409Z,87.81
2018-12-26T19:21:43.616Z,87.89
2018-12-26T19:24:12.715Z,88.05
2018-12-26T19:26:41.839Z,88.98
2018-12-26T19:29:10.935Z,89.39
2018-12-26T19:31:40.052Z,89.52
2018-12-26T19:34:09.179Z,89.48
2018-12-26T19:36:38.380Z,89.04
2018-12-26T19:39:08.028Z,88.33
2018-12-26T19:41:37.149Z,88.09
2018-12-26T19:44:06.252Z,87.82
2018-12-26T19:46:35.380Z,88.16
2018-12-26T19:49:04.482Z,89.35
2018-12-26T19:51:33.619Z,90.66
2018-12-26T19:54:02.723Z,91.62
2018-12-26T19:56:31.824Z,91.46
2018-12-26T19:59:01.832Z,91.17
2018-12-26T20:01:30.935Z,91.43
2018-12-26T20:04:00.059Z,91.43
2018-12-26T20:06:29.167Z,90.76
2018-12-26T20:08:58.291Z,90.66
2018-12-26T20:11:27.387Z,90.46
2018-12-26T20:13:56.513Z,90.19
2018-12-26T20:16:25.610Z,90.31
2018-12-26T20:18:54.735Z,90.15
2018-12-26T20:21:23.852Z,90.12
2018-12-26T20:23:52.980Z,89.80
2018-12-26T20:26:22.074Z,89.71
2018-12-26T20:28:51.195Z,89.60
2018-12-26T20:31:20.301Z,89.62
2018-12-26T20:33:49.475Z,89.87
2018-12-26T20:36:18.589Z,89.71
2018-12-26T20:38:47.727Z,89.36
2018-12-26T20:41:17.583Z,89.71
2018-12-26T20:43:47.317Z,90.47
2018-12-26T20:46:17.160Z,90.59
2018-12-26T20:48:46.571Z,90.71
2018-12-26T20:51:16.139Z,90.43
2018-12-26T20:53:45.266Z,91.14
2018-12-26T20:56:14.992Z,92.02
2018-12-26T20:58:45.035Z,91.94
2018-12-26T21:01:14.711Z,92.38
2018-12-26T21:03:44.855Z,92.30
2018-12-26T21:06:14.636Z,92.02
2018-12-26T21:08:44.570Z,91.81
2018-12-26T21:11:14.382Z,91.77
2018-12-26T21:13:43.943Z,91.13
2018-12-26T21:16:13.690Z,90.59
2018-12-26T21:18:43.159Z,91.16
2018-12-26T21:21:12.654Z,90.72
2018-12-26T21:23:41.835Z,90.03
2018-12-26T21:26:10.968Z,90.23
2018-12-26T21:28:40.069Z,90.45
2018-12-26T21:31:09.192Z,90.46
2018-12-26T21:33:38.394Z,90.70
2018-12-26T21:36:07.523Z,91.11
2018-12-26T21:38:37.368Z,90.27
2018-12-26T21:41:07.128Z,89.18
2018-12-26T21:43:36.939Z,89.06
2018-12-26T21:46:06.815Z,89.78
2018-12-26T21:48:36.343Z,90.45
2018-12-26T21:51:05.874Z,91.70
2018-12-26T21:53:35.651Z,91.67
2018-12-26T21:56:05.945Z,91.03
2018-12-26T21:58:35.747Z,90.94
2018-12-26T22:01:05.834Z,91.48
2018-12-26T22:03:35.186Z,90.48
2018-12-26T22:06:04.899Z,90.13
2018-12-26T22:08:34.532Z,90.14
2018-12-26T22:11:04.390Z,89.22
2018-12-26T22:13:33.984Z,87.69
2018-12-26T22:16:03.736Z,88.61
2018-12-26T22:18:33.832Z,89.37
2018-12-26T22:21:04.698Z,88.56
2018-12-26T22:23:34.536Z,88.67
2018-12-26T22:26:04.536Z,88.61
2018-12-26T22:28:34.032Z,88.53
2018-12-26T22:31:03.476Z,87.81
2018-12-26T22:33:33.113Z,87.62
2018-12-26T22:36:02.606Z,88.11
2018-12-26T22:38:32.520Z,88.54
2018-12-26T22:41:02.203Z,89.06
2018-12-26T22:43:31.428Z,88.97
2018-12-26T22:46:00.526Z,89.00
2018-12-26T22:48:29.658Z,89.09
2018-12-26T22:50:58.750Z,88.61
2018-12-26T22:53:27.870Z,88.66
2018-12-26T22:55:56.972Z,89.39
2018-12-26T22:58:26.091Z,88.38
2018-12-26T23:00:55.208Z,88.08
2018-12-26T23:03:24.329Z,89.05
2018-12-26T23:05:53.426Z,89.10
2018-12-26T23:08:22.555Z,89.61
2018-12-26T23:10:51.654Z,90.26
2018-12-26T23:13:20.768Z,90.10
2018-12-26T23:15:49.878Z,89.95
2018-12-26T23:18:19.008Z,89.20
2018-12-26T23:20:48.108Z,89.25
2018-12-26T23:23:17.231Z,89.98
2018-12-26T23:25:46.338Z,89.49
2018-12-26T23:28:15.464Z,89.13
2018-12-26T23:30:44.564Z,87.65
2018-12-26T23:33:13.890Z,88.94
2018-12-26T23:35:43.011Z,89.21
2018-12-26T23:38:12.126Z,89.99
2018-12-26T23:40:41.227Z,90.42
2018-12-26T23:43:10.362Z,89.71
2018-12-26T23:45:39.463Z,89.04
2018-12-26T23:48:08.584Z,88.83
2018-12-26T23:50:37.699Z,89.20
2018-12-26T23:53:06.794Z,89.55
2018-12-26T23:55:35.911Z,89.35
2018-12-26T23:58:05.024Z,89.67
